ICAO code: LHPR | IATA code: QGY | AFTN: LHPRZPZX | english | deutsch
Időjárás: 2017-12-14 14:50 (UTC) | Hőmérséklet: 6 °C | QNH: 1005.4 hPa | Szél: 4.3 m/s | Részletek
Live ATC LHPR
Webkameránk élőképe

Győr-Pér Repülőtér időjárás adatok

Metar:
METAR LHPR 142315Z AUTO 27008KT CAVOK M00/M02 Q1026 RMK BL


Taf:
TAF LHPR 142300Z NIL


Jelenidő:
Nem volt érdemleges időjárási jelenség az elmúlt órában
Időbélyeg: 2017-12-14 14:50:00 UTC
Hőmérséklet:
6.0 °C
 
Harmatpont:
3.2 °C
 
Rel. páratartalom:
82%
 
QNH:
1005.4 hPa
 
Szélsebesség:
4.3 m/s
Max:
4.3 m/s
Szélirány:
160°
 
Csapadék (1 óra):
0.0 mm
 
Látótávolság:
20000 m
 
RVR:
>1500 m RWY30
 
1. felhőréteg mennyisége:
0 octa
 
1. felhőréteg alapja:
m


Az adatokat szolgáltatja
az Országos Meteorológiai Szolgálat
Győr-Pér Repülőtér | H 9099 Pér, Repülőtér | Tel: +36/96/559-200 | Fax: +36/96/559-202

ICAO code: LHPR | IATA code: QGY | AFTN: LHPRZPZX


weboldal tervezés: IRQ